sensor_id;sensor_type;location;lat;lon;timestamp;temperature;humidity
58339;DHT22;68636;52.704;6.536;2023-08-07T00:00:42;14.70;99.90
58339;DHT22;68636;52.704;6.536;2023-08-07T00:03:08;14.70;99.90
58339;DHT22;68636;52.704;6.536;2023-08-07T00:05:33;14.70;99.90
58339;DHT22;68636;52.704;6.536;2023-08-07T00:07:59;14.70;99.90
58339;DHT22;68636;52.704;6.536;2023-08-07T00:10:26;14.70;99.90
58339;DHT22;68636;52.704;6.536;2023-08-07T00:12:51;14.70;99.90
58339;DHT22;68636;52.704;6.536;2023-08-07T00:15:17;14.70;99.90
58339;DHT22;68636;52.704;6.536;2023-08-07T00:17:43;14.70;99.90
58339;DHT22;68636;52.704;6.536;2023-08-07T00:20:09;14.70;99.90
58339;DHT22;68636;52.704;6.536;2023-08-07T00:22:35;14.60;99.90
58339;DHT22;68636;52.704;6.536;2023-08-07T00:25:01;14.70;99.90
58339;DHT22;68636;52.704;6.536;2023-08-07T00:27:26;14.70;99.90
58339;DHT22;68636;52.704;6.536;2023-08-07T00:29:52;14.60;99.90
58339;DHT22;68636;52.704;6.536;2023-08-07T00:32:18;14.60;99.90
58339;DHT22;68636;52.704;6.536;2023-08-07T00:34:44;14.60;99.90
58339;DHT22;68636;52.704;6.536;2023-08-07T00:37:09;14.50;99.90
58339;DHT22;68636;52.704;6.536;2023-08-07T00:39:35;14.50;99.90
58339;DHT22;68636;52.704;6.536;2023-08-07T00:42:01;14.60;99.90
58339;DHT22;68636;52.704;6.536;2023-08-07T00:44:27;14.60;99.90
58339;DHT22;68636;52.704;6.536;2023-08-07T00:46:52;14.60;99.90
58339;DHT22;68636;52.704;6.536;2023-08-07T00:49:20;14.50;99.90
58339;DHT22;68636;52.704;6.536;2023-08-07T00:51:46;14.60;99.90
58339;DHT22;68636;52.704;6.536;2023-08-07T00:54:15;14.60;99.90
58339;DHT22;68636;52.704;6.536;2023-08-07T00:56:42;14.60;99.90
58339;DHT22;68636;52.704;6.536;2023-08-07T00:59:08;14.60;99.90
58339;DHT22;68636;52.704;6.536;2023-08-07T01:01:35;14.60;99.90
58339;DHT22;68636;52.704;6.536;2023-08-07T01:04:02;14.60;99.90
58339;DHT22;68636;52.704;6.536;2023-08-07T01:06:27;14.50;99.90
58339;DHT22;68636;52.704;6.536;2023-08-07T01:08:53;14.60;99.90
58339;DHT22;68636;52.704;6.536;2023-08-07T01:16:42;14.60;99.90
58339;DHT22;68636;52.704;6.536;2023-08-07T01:19:23;14.60;99.90
58339;DHT22;68636;52.704;6.536;2023-08-07T01:22:09;14.60;99.90
58339;DHT22;68636;52.704;6.536;2023-08-07T01:24:35;14.60;99.90
58339;DHT22;68636;52.704;6.536;2023-08-07T01:27:15;14.60;99.90
58339;DHT22;68636;52.704;6.536;2023-08-07T01:35:03;14.60;99.90
58339;DHT22;68636;52.704;6.536;2023-08-07T01:37:33;14.60;99.90
58339;DHT22;68636;52.704;6.536;2023-08-07T01:40:00;14.60;99.90
58339;DHT22;68636;52.704;6.536;2023-08-07T01:42:29;14.70;99.90
58339;DHT22;68636;52.704;6.536;2023-08-07T01:44:55;14.70;99.90
58339;DHT22;68636;52.704;6.536;2023-08-07T01:47:21;14.60;99.90
58339;DHT22;68636;52.704;6.536;2023-08-07T01:49:46;14.60;99.90
58339;DHT22;68636;52.704;6.536;2023-08-07T01:52:12;14.60;99.90
58339;DHT22;68636;52.704;6.536;2023-08-07T01:54:38;14.60;99.90
58339;DHT22;68636;52.704;6.536;2023-08-07T01:57:04;14.60;99.90
58339;DHT22;68636;52.704;6.536;2023-08-07T01:59:30;14.60;99.90
58339;DHT22;68636;52.704;6.536;2023-08-07T02:01:56;14.60;99.90
58339;DHT22;68636;52.704;6.536;2023-08-07T02:04:21;14.60;99.90
58339;DHT22;68636;52.704;6.536;2023-08-07T02:06:47;14.70;99.90
58339;DHT22;68636;52.704;6.536;2023-08-07T02:09:13;14.70;99.90
58339;DHT22;68636;52.704;6.536;2023-08-07T02:11:38;14.60;99.90
58339;DHT22;68636;52.704;6.536;2023-08-07T02:14:04;14.60;99.90
58339;DHT22;68636;52.704;6.536;2023-08-07T02:16:30;14.60;99.90
58339;DHT22;68636;52.704;6.536;2023-08-07T02:18:56;14.50;99.90
58339;DHT22;68636;52.704;6.536;2023-08-07T02:21:22;14.50;99.90
58339;DHT22;68636;52.704;6.536;2023-08-07T02:23:47;14.40;99.90
58339;DHT22;68636;52.704;6.536;2023-08-07T02:26:13;14.30;99.90
58339;DHT22;68636;52.704;6.536;2023-08-07T02:28:39;14.30;99.90
58339;DHT22;68636;52.704;6.536;2023-08-07T02:31:05;14.20;99.90
58339;DHT22;68636;52.704;6.536;2023-08-07T02:33:30;14.20;99.90
58339;DHT22;68636;52.704;6.536;2023-08-07T02:35:56;14.10;99.90
58339;DHT22;68636;52.704;6.536;2023-08-07T02:38:22;14.00;99.90
58339;DHT22;68636;52.704;6.536;2023-08-07T02:40:48;14.00;99.90
58339;DHT22;68636;52.704;6.536;2023-08-07T02:43:14;14.00;99.90
58339;DHT22;68636;52.704;6.536;2023-08-07T02:45:39;14.00;99.90
58339;DHT22;68636;52.704;6.536;2023-08-07T02:48:05;13.90;99.90
58339;DHT22;68636;52.704;6.536;2023-08-07T02:50:31;13.90;99.90
58339;DHT22;68636;52.704;6.536;2023-08-07T02:53:01;13.90;99.90
58339;DHT22;68636;52.704;6.536;2023-08-07T02:55:27;13.80;99.90
58339;DHT22;68636;52.704;6.536;2023-08-07T02:57:53;13.80;99.90
58339;DHT22;68636;52.704;6.536;2023-08-07T03:00:19;13.80;99.90
58339;DHT22;68636;52.704;6.536;2023-08-07T03:02:45;13.70;99.90
58339;DHT22;68636;52.704;6.536;2023-08-07T03:05:11;13.70;99.90
58339;DHT22;68636;52.704;6.536;2023-08-07T03:07:37;13.70;99.90
58339;DHT22;68636;52.704;6.536;2023-08-07T03:10:02;13.60;99.90
58339;DHT22;68636;52.704;6.536;2023-08-07T03:12:29;13.60;99.90
58339;DHT22;68636;52.704;6.536;2023-08-07T03:14:55;13.60;99.90
58339;DHT22;68636;52.704;6.536;2023-08-07T03:17:21;13.60;99.90
58339;DHT22;68636;52.704;6.536;2023-08-07T03:19:46;13.70;99.90
58339;DHT22;68636;52.704;6.536;2023-08-07T03:22:12;13.70;99.90
58339;DHT22;68636;52.704;6.536;2023-08-07T03:24:38;13.70;99.90
58339;DHT22;68636;52.704;6.536;2023-08-07T03:27:04;13.70;99.90
58339;DHT22;68636;52.704;6.536;2023-08-07T03:29:30;13.70;99.90
58339;DHT22;68636;52.704;6.536;2023-08-07T03:31:56;13.70;99.90
58339;DHT22;68636;52.704;6.536;2023-08-07T03:34:21;13.80;99.90
58339;DHT22;68636;52.704;6.536;2023-08-07T03:36:47;13.80;99.90
58339;DHT22;68636;52.704;6.536;2023-08-07T03:39:13;13.80;99.90
58339;DHT22;68636;52.704;6.536;2023-08-07T03:41:39;13.80;99.90
58339;DHT22;68636;52.704;6.536;2023-08-07T03:44:05;13.80;99.90
58339;DHT22;68636;52.704;6.536;2023-08-07T03:46:32;13.80;99.90
58339;DHT22;68636;52.704;6.536;2023-08-07T03:48:58;13.80;99.90
58339;DHT22;68636;52.704;6.536;2023-08-07T03:51:23;13.80;99.90
58339;DHT22;68636;52.704;6.536;2023-08-07T03:53:49;13.70;99.90
58339;DHT22;68636;52.704;6.536;2023-08-07T03:56:15;13.70;99.90
58339;DHT22;68636;52.704;6.536;2023-08-07T03:58:41;13.70;99.90
58339;DHT22;68636;52.704;6.536;2023-08-07T04:01:07;13.80;99.90
58339;DHT22;68636;52.704;6.536;2023-08-07T04:03:33;13.70;99.90
58339;DHT22;68636;52.704;6.536;2023-08-07T04:05:58;13.80;99.90
58339;DHT22;68636;52.704;6.536;2023-08-07T04:08:26;13.90;99.90
58339;DHT22;68636;52.704;6.536;2023-08-07T04:11:04;13.90;99.90
58339;DHT22;68636;52.704;6.536;2023-08-07T04:13:30;14.00;99.90
58339;DHT22;68636;52.704;6.536;2023-08-07T04:15:57;14.00;99.90
58339;DHT22;68636;52.704;6.536;2023-08-07T04:18:23;14.00;99.90
58339;DHT22;68636;52.704;6.536;2023-08-07T04:20:58;14.00;99.90
58339;DHT22;68636;52.704;6.536;2023-08-07T04:23:24;13.90;99.90
58339;DHT22;68636;52.704;6.536;2023-08-07T04:25:51;13.90;99.90
58339;DHT22;68636;52.704;6.536;2023-08-07T04:28:17;13.80;99.90
58339;DHT22;68636;52.704;6.536;2023-08-07T04:30:43;13.80;99.90
58339;DHT22;68636;52.704;6.536;2023-08-07T04:33:09;13.80;99.90
58339;DHT22;68636;52.704;6.536;2023-08-07T04:35:35;13.80;99.90
58339;DHT22;68636;52.704;6.536;2023-08-07T04:38:01;13.80;99.90
58339;DHT22;68636;52.704;6.536;2023-08-07T04:40:28;13.80;99.90
58339;DHT22;68636;52.704;6.536;2023-08-07T04:42:54;13.80;99.90
58339;DHT22;68636;52.704;6.536;2023-08-07T04:45:20;13.80;99.90
58339;DHT22;68636;52.704;6.536;2023-08-07T04:47:45;13.80;99.90
58339;DHT22;68636;52.704;6.536;2023-08-07T04:50:11;13.80;99.90
58339;DHT22;68636;52.704;6.536;2023-08-07T04:52:37;13.80;99.90
58339;DHT22;68636;52.704;6.536;2023-08-07T04:55:03;13.80;99.90
58339;DHT22;68636;52.704;6.536;2023-08-07T04:57:29;13.80;99.90
58339;DHT22;68636;52.704;6.536;2023-08-07T04:59:55;13.80;99.90
58339;DHT22;68636;52.704;6.536;2023-08-07T05:02:21;13.90;99.90
58339;DHT22;68636;52.704;6.536;2023-08-07T05:04:46;13.80;99.90
58339;DHT22;68636;52.704;6.536;2023-08-07T05:07:12;13.80;99.90
58339;DHT22;68636;52.704;6.536;2023-08-07T05:09:38;13.80;99.90
58339;DHT22;68636;52.704;6.536;2023-08-07T05:12:05;13.90;99.90
58339;DHT22;68636;52.704;6.536;2023-08-07T05:14:32;14.00;99.90
58339;DHT22;68636;52.704;6.536;2023-08-07T05:16:58;14.10;99.90
58339;DHT22;68636;52.704;6.536;2023-08-07T05:19:25;14.20;99.90
58339;DHT22;68636;52.704;6.536;2023-08-07T05:21:51;14.30;99.90
58339;DHT22;68636;52.704;6.536;2023-08-07T05:24:17;14.30;99.90
58339;DHT22;68636;52.704;6.536;2023-08-07T05:26:44;14.40;99.90
58339;DHT22;68636;52.704;6.536;2023-08-07T05:29:09;14.40;99.90
58339;DHT22;68636;52.704;6.536;2023-08-07T05:31:35;14.40;99.90
58339;DHT22;68636;52.704;6.536;2023-08-07T05:34:01;14.40;99.90
58339;DHT22;68636;52.704;6.536;2023-08-07T05:36:27;14.30;99.90
58339;DHT22;68636;52.704;6.536;2023-08-07T05:38:54;14.30;99.90
58339;DHT22;68636;52.704;6.536;2023-08-07T05:41:19;14.30;99.90
58339;DHT22;68636;52.704;6.536;2023-08-07T05:43:45;14.20;99.90
58339;DHT22;68636;52.704;6.536;2023-08-07T05:46:11;14.20;99.90
58339;DHT22;68636;52.704;6.536;2023-08-07T05:48:37;14.10;99.90
58339;DHT22;68636;52.704;6.536;2023-08-07T05:51:03;14.00;99.90
58339;DHT22;68636;52.704;6.536;2023-08-07T05:53:28;14.00;99.90
58339;DHT22;68636;52.704;6.536;2023-08-07T05:55:55;14.00;99.90
58339;DHT22;68636;52.704;6.536;2023-08-07T05:58:21;14.00;99.90
58339;DHT22;68636;52.704;6.536;2023-08-07T06:00:47;14.00;99.90
58339;DHT22;68636;52.704;6.536;2023-08-07T06:03:12;14.00;99.90
58339;DHT22;68636;52.704;6.536;2023-08-07T06:05:38;14.00;99.90
58339;DHT22;68636;52.704;6.536;2023-08-07T06:08:04;14.00;99.90
58339;DHT22;68636;52.704;6.536;2023-08-07T06:10:30;13.90;99.90
58339;DHT22;68636;52.704;6.536;2023-08-07T06:12:56;14.00;99.90
58339;DHT22;68636;52.704;6.536;2023-08-07T06:15:21;14.00;99.90
58339;DHT22;68636;52.704;6.536;2023-08-07T06:17:47;14.10;99.90
58339;DHT22;68636;52.704;6.536;2023-08-07T06:20:13;14.20;99.90
58339;DHT22;68636;52.704;6.536;2023-08-07T06:22:40;14.40;99.90
58339;DHT22;68636;52.704;6.536;2023-08-07T06:25:06;14.50;99.90
58339;DHT22;68636;52.704;6.536;2023-08-07T06:27:32;14.50;99.90
58339;DHT22;68636;52.704;6.536;2023-08-07T06:29:58;14.60;99.90
58339;DHT22;68636;52.704;6.536;2023-08-07T06:32:25;14.70;99.90
58339;DHT22;68636;52.704;6.536;2023-08-07T06:34:52;14.90;99.90
58339;DHT22;68636;52.704;6.536;2023-08-07T06:37:18;14.90;99.90
58339;DHT22;68636;52.704;6.536;2023-08-07T06:39:44;14.80;99.90
58339;DHT22;68636;52.704;6.536;2023-08-07T06:42:09;14.70;99.90
58339;DHT22;68636;52.704;6.536;2023-08-07T06:44:35;14.70;99.90
58339;DHT22;68636;52.704;6.536;2023-08-07T06:47:01;14.50;99.90
58339;DHT22;68636;52.704;6.536;2023-08-07T06:49:27;14.40;99.90
58339;DHT22;68636;52.704;6.536;2023-08-07T06:51:52;14.10;99.90
58339;DHT22;68636;52.704;6.536;2023-08-07T06:54:18;13.90;99.90
58339;DHT22;68636;52.704;6.536;2023-08-07T06:56:44;13.90;99.90
58339;DHT22;68636;52.704;6.536;2023-08-07T06:59:10;13.80;99.90
58339;DHT22;68636;52.704;6.536;2023-08-07T07:01:35;13.80;99.90
58339;DHT22;68636;52.704;6.536;2023-08-07T07:04:02;13.80;99.90
58339;DHT22;68636;52.704;6.536;2023-08-07T07:06:27;13.80;99.90
58339;DHT22;68636;52.704;6.536;2023-08-07T07:08:53;13.90;99.90
58339;DHT22;68636;52.704;6.536;2023-08-07T07:11:22;13.90;99.90
58339;DHT22;68636;52.704;6.536;2023-08-07T07:13:50;13.90;99.90
58339;DHT22;68636;52.704;6.536;2023-08-07T07:16:20;14.00;99.90
58339;DHT22;68636;52.704;6.536;2023-08-07T07:18:52;14.10;99.90
58339;DHT22;68636;52.704;6.536;2023-08-07T07:21:18;14.20;99.90
58339;DHT22;68636;52.704;6.536;2023-08-07T07:23:44;14.40;99.90
58339;DHT22;68636;52.704;6.536;2023-08-07T07:26:09;14.70;99.90
58339;DHT22;68636;52.704;6.536;2023-08-07T07:28:35;14.70;99.90
58339;DHT22;68636;52.704;6.536;2023-08-07T07:31:01;14.80;99.90
58339;DHT22;68636;52.704;6.536;2023-08-07T07:33:29;14.80;99.90
58339;DHT22;68636;52.704;6.536;2023-08-07T07:35:55;14.80;99.90
58339;DHT22;68636;52.704;6.536;2023-08-07T07:38:21;14.80;99.90
58339;DHT22;68636;52.704;6.536;2023-08-07T07:40:47;14.70;99.90
58339;DHT22;68636;52.704;6.536;2023-08-07T07:43:13;14.60;99.90
58339;DHT22;68636;52.704;6.536;2023-08-07T07:45:39;14.50;99.90
58339;DHT22;68636;52.704;6.536;2023-08-07T07:48:05;14.50;99.90
58339;DHT22;68636;52.704;6.536;2023-08-07T07:50:31;14.50;99.90
58339;DHT22;68636;52.704;6.536;2023-08-07T07:52:57;14.60;99.90
58339;DHT22;68636;52.704;6.536;2023-08-07T07:55:24;14.70;99.90
58339;DHT22;68636;52.704;6.536;2023-08-07T07:57:51;14.90;99.90
58339;DHT22;68636;52.704;6.536;2023-08-07T08:00:17;15.20;99.90
58339;DHT22;68636;52.704;6.536;2023-08-07T08:02:43;15.30;99.90
58339;DHT22;68636;52.704;6.536;2023-08-07T08:05:09;15.20;99.90
58339;DHT22;68636;52.704;6.536;2023-08-07T08:07:37;14.70;99.90
58339;DHT22;68636;52.704;6.536;2023-08-07T08:10:03;14.30;99.90
58339;DHT22;68636;52.704;6.536;2023-08-07T08:12:30;14.20;99.90
58339;DHT22;68636;52.704;6.536;2023-08-07T08:14:56;14.10;99.90
58339;DHT22;68636;52.704;6.536;2023-08-07T08:17:23;14.10;99.90
58339;DHT22;68636;52.704;6.536;2023-08-07T08:19:49;14.10;99.90
58339;DHT22;68636;52.704;6.536;2023-08-07T08:22:14;14.10;99.90
58339;DHT22;68636;52.704;6.536;2023-08-07T08:24:40;14.00;99.90
58339;DHT22;68636;52.704;6.536;2023-08-07T08:27:06;14.00;99.90
58339;DHT22;68636;52.704;6.536;2023-08-07T08:29:32;14.00;99.90
58339;DHT22;68636;52.704;6.536;2023-08-07T08:31:57;14.10;99.90
58339;DHT22;68636;52.704;6.536;2023-08-07T08:34:25;14.30;99.90
58339;DHT22;68636;52.704;6.536;2023-08-07T08:36:51;14.40;99.90
58339;DHT22;68636;52.704;6.536;2023-08-07T08:39:16;14.70;99.90
58339;DHT22;68636;52.704;6.536;2023-08-07T08:41:45;14.90;99.90
58339;DHT22;68636;52.704;6.536;2023-08-07T08:44:12;15.10;99.90
58339;DHT22;68636;52.704;6.536;2023-08-07T08:46:41;15.20;99.90
58339;DHT22;68636;52.704;6.536;2023-08-07T08:49:08;14.60;99.90
58339;DHT22;68636;52.704;6.536;2023-08-07T08:51:36;14.20;99.90
58339;DHT22;68636;52.704;6.536;2023-08-07T08:54:03;14.10;99.90
58339;DHT22;68636;52.704;6.536;2023-08-07T08:56:32;13.90;99.90
58339;DHT22;68636;52.704;6.536;2023-08-07T08:58:58;13.90;99.90
58339;DHT22;68636;52.704;6.536;2023-08-07T09:01:24;14.00;99.90
58339;DHT22;68636;52.704;6.536;2023-08-07T09:03:52;14.00;99.90
58339;DHT22;68636;52.704;6.536;2023-08-07T09:06:18;14.20;99.90
58339;DHT22;68636;52.704;6.536;2023-08-07T09:08:45;14.20;99.90
58339;DHT22;68636;52.704;6.536;2023-08-07T09:11:12;14.20;99.90
58339;DHT22;68636;52.704;6.536;2023-08-07T09:13:40;14.10;99.90
58339;DHT22;68636;52.704;6.536;2023-08-07T09:16:08;14.10;99.90
58339;DHT22;68636;52.704;6.536;2023-08-07T09:18:35;14.00;99.90
58339;DHT22;68636;52.704;6.536;2023-08-07T09:21:01;14.00;99.90
58339;DHT22;68636;52.704;6.536;2023-08-07T09:23:27;14.00;99.90
58339;DHT22;68636;52.704;6.536;2023-08-07T09:25:59;14.10;99.90
58339;DHT22;68636;52.704;6.536;2023-08-07T09:28:26;14.20;99.90
58339;DHT22;68636;52.704;6.536;2023-08-07T09:30:53;14.40;99.90
58339;DHT22;68636;52.704;6.536;2023-08-07T09:33:26;14.60;99.90
58339;DHT22;68636;52.704;6.536;2023-08-07T09:35:52;14.60;99.90
58339;DHT22;68636;52.704;6.536;2023-08-07T09:38:23;14.80;99.90
58339;DHT22;68636;52.704;6.536;2023-08-07T09:40:49;14.80;99.90
58339;DHT22;68636;52.704;6.536;2023-08-07T09:43:22;15.00;99.90
58339;DHT22;68636;52.704;6.536;2023-08-07T09:45:48;15.10;99.90
58339;DHT22;68636;52.704;6.536;2023-08-07T09:48:24;15.20;99.90
58339;DHT22;68636;52.704;6.536;2023-08-07T09:50:53;15.50;99.90
58339;DHT22;68636;52.704;6.536;2023-08-07T09:53:25;15.90;99.90
58339;DHT22;68636;52.704;6.536;2023-08-07T09:55:53;16.20;99.90
58339;DHT22;68636;52.704;6.536;2023-08-07T09:58:18;16.40;99.90
58339;DHT22;68636;52.704;6.536;2023-08-07T10:00:46;16.40;99.90
58339;DHT22;68636;52.704;6.536;2023-08-07T10:03:13;16.30;99.90
58339;DHT22;68636;52.704;6.536;2023-08-07T10:05:40;16.30;99.90
58339;DHT22;68636;52.704;6.536;2023-08-07T10:08:06;16.10;99.90
58339;DHT22;68636;52.704;6.536;2023-08-07T10:10:32;15.90;99.90
58339;DHT22;68636;52.704;6.536;2023-08-07T10:13:00;15.80;99.90
58339;DHT22;68636;52.704;6.536;2023-08-07T10:15:28;15.90;99.90
58339;DHT22;68636;52.704;6.536;2023-08-07T10:17:54;16.00;99.90
58339;DHT22;68636;52.704;6.536;2023-08-07T10:20:21;16.00;99.90
58339;DHT22;68636;52.704;6.536;2023-08-07T10:22:47;16.20;99.90
58339;DHT22;68636;52.704;6.536;2023-08-07T10:25:13;16.30;99.90
58339;DHT22;68636;52.704;6.536;2023-08-07T10:27:41;16.70;99.90
58339;DHT22;68636;52.704;6.536;2023-08-07T10:30:11;16.80;99.90
58339;DHT22;68636;52.704;6.536;2023-08-07T10:32:42;17.10;99.90
58339;DHT22;68636;52.704;6.536;2023-08-07T10:35:08;17.00;99.90
58339;DHT22;68636;52.704;6.536;2023-08-07T10:37:41;16.90;99.90
58339;DHT22;68636;52.704;6.536;2023-08-07T10:40:09;17.10;99.90
58339;DHT22;68636;52.704;6.536;2023-08-07T10:45:20;17.10;99.90
58339;DHT22;68636;52.704;6.536;2023-08-07T10:48:17;17.30;99.90
58339;DHT22;68636;52.704;6.536;2023-08-07T10:50:56;17.40;99.90
58339;DHT22;68636;52.704;6.536;2023-08-07T10:53:36;17.30;99.90
58339;DHT22;68636;52.704;6.536;2023-08-07T10:56:04;17.00;99.90
58339;DHT22;68636;52.704;6.536;2023-08-07T10:58:35;17.10;99.90
58339;DHT22;68636;52.704;6.536;2023-08-07T11:03:56;16.70;99.90
58339;DHT22;68636;52.704;6.536;2023-08-07T11:06:30;16.60;99.90
58339;DHT22;68636;52.704;6.536;2023-08-07T11:09:00;16.70;99.90
58339;DHT22;68636;52.704;6.536;2023-08-07T11:11:28;17.00;99.90
58339;DHT22;68636;52.704;6.536;2023-08-07T11:13:54;17.40;99.90
58339;DHT22;68636;52.704;6.536;2023-08-07T11:16:20;17.90;99.90
58339;DHT22;68636;52.704;6.536;2023-08-07T11:18:48;18.10;99.90
58339;DHT22;68636;52.704;6.536;2023-08-07T11:21:14;18.20;99.90
58339;DHT22;68636;52.704;6.536;2023-08-07T11:23:40;17.80;99.90
58339;DHT22;68636;52.704;6.536;2023-08-07T11:26:08;17.90;99.90
58339;DHT22;68636;52.704;6.536;2023-08-07T11:28:34;17.70;99.90
58339;DHT22;68636;52.704;6.536;2023-08-07T11:31:00;17.90;99.90
58339;DHT22;68636;52.704;6.536;2023-08-07T11:33:27;17.90;99.90
58339;DHT22;68636;52.704;6.536;2023-08-07T11:35:54;17.90;99.90
58339;DHT22;68636;52.704;6.536;2023-08-07T11:38:40;18.00;99.90
58339;DHT22;68636;52.704;6.536;2023-08-07T11:41:11;17.90;99.90
58339;DHT22;68636;52.704;6.536;2023-08-07T11:43:38;18.00;99.90
58339;DHT22;68636;52.704;6.536;2023-08-07T11:46:05;18.10;99.90
58339;DHT22;68636;52.704;6.536;2023-08-07T11:48:33;17.90;99.90
58339;DHT22;68636;52.704;6.536;2023-08-07T11:51:00;17.90;99.90
58339;DHT22;68636;52.704;6.536;2023-08-07T11:53:27;18.00;99.90
58339;DHT22;68636;52.704;6.536;2023-08-07T11:56:00;18.30;99.90
58339;DHT22;68636;52.704;6.536;2023-08-07T11:58:28;18.50;99.90
58339;DHT22;68636;52.704;6.536;2023-08-07T12:00:58;18.60;99.90
58339;DHT22;68636;52.704;6.536;2023-08-07T12:03:29;18.80;99.90
58339;DHT22;68636;52.704;6.536;2023-08-07T12:05:57;18.70;99.90
58339;DHT22;68636;52.704;6.536;2023-08-07T12:08:24;18.70;99.90
58339;DHT22;68636;52.704;6.536;2023-08-07T12:10:51;18.60;99.90
58339;DHT22;68636;52.704;6.536;2023-08-07T12:13:20;18.30;99.90
58339;DHT22;68636;52.704;6.536;2023-08-07T12:15:46;18.40;99.90
58339;DHT22;68636;52.704;6.536;2023-08-07T12:18:11;18.40;99.90
58339;DHT22;68636;52.704;6.536;2023-08-07T12:20:38;18.20;99.90
58339;DHT22;68636;52.704;6.536;2023-08-07T12:23:04;18.30;99.90
58339;DHT22;68636;52.704;6.536;2023-08-07T12:25:30;18.60;99.90
58339;DHT22;68636;52.704;6.536;2023-08-07T12:27:55;18.90;99.90
58339;DHT22;68636;52.704;6.536;2023-08-07T12:30:21;19.10;99.90
58339;DHT22;68636;52.704;6.536;2023-08-07T12:32:47;19.20;99.90
58339;DHT22;68636;52.704;6.536;2023-08-07T12:35:12;18.80;99.90
58339;DHT22;68636;52.704;6.536;2023-08-07T12:37:38;18.80;99.90
58339;DHT22;68636;52.704;6.536;2023-08-07T12:40:04;18.90;99.90
58339;DHT22;68636;52.704;6.536;2023-08-07T12:42:31;19.00;99.90
58339;DHT22;68636;52.704;6.536;2023-08-07T12:44:57;19.00;99.90
58339;DHT22;68636;52.704;6.536;2023-08-07T12:47:23;19.00;99.90
58339;DHT22;68636;52.704;6.536;2023-08-07T12:49:49;19.10;99.90
58339;DHT22;68636;52.704;6.536;2023-08-07T12:52:15;18.90;99.90
58339;DHT22;68636;52.704;6.536;2023-08-07T12:54:41;18.90;99.90
58339;DHT22;68636;52.704;6.536;2023-08-07T12:57:06;19.00;99.90
58339;DHT22;68636;52.704;6.536;2023-08-07T12:59:32;19.00;99.90
58339;DHT22;68636;52.704;6.536;2023-08-07T13:01:58;18.80;99.90
58339;DHT22;68636;52.704;6.536;2023-08-07T13:04:24;18.30;99.90
58339;DHT22;68636;52.704;6.536;2023-08-07T13:06:50;18.10;99.90
58339;DHT22;68636;52.704;6.536;2023-08-07T13:09:16;17.80;99.90
58339;DHT22;68636;52.704;6.536;2023-08-07T13:11:42;15.80;99.90
58339;DHT22;68636;52.704;6.536;2023-08-07T13:14:07;15.50;99.90
58339;DHT22;68636;52.704;6.536;2023-08-07T13:16:33;15.20;99.90
58339;DHT22;68636;52.704;6.536;2023-08-07T13:18:59;15.30;99.90
58339;DHT22;68636;52.704;6.536;2023-08-07T13:21:25;15.20;99.90
58339;DHT22;68636;52.704;6.536;2023-08-07T13:23:50;15.30;99.90
58339;DHT22;68636;52.704;6.536;2023-08-07T13:26:16;15.10;99.90
58339;DHT22;68636;52.704;6.536;2023-08-07T13:28:43;15.00;99.90
58339;DHT22;68636;52.704;6.536;2023-08-07T13:31:09;14.70;99.90
58339;DHT22;68636;52.704;6.536;2023-08-07T13:33:34;14.50;99.90
58339;DHT22;68636;52.704;6.536;2023-08-07T13:36:00;14.50;99.90
58339;DHT22;68636;52.704;6.536;2023-08-07T13:38:26;14.60;99.90
58339;DHT22;68636;52.704;6.536;2023-08-07T13:40:52;14.70;99.90
58339;DHT22;68636;52.704;6.536;2023-08-07T13:43:17;14.80;99.90
58339;DHT22;68636;52.704;6.536;2023-08-07T13:45:43;15.00;99.90
58339;DHT22;68636;52.704;6.536;2023-08-07T13:48:09;14.90;99.90
58339;DHT22;68636;52.704;6.536;2023-08-07T13:50:35;15.00;99.90
58339;DHT22;68636;52.704;6.536;2023-08-07T13:53:03;15.10;99.90
58339;DHT22;68636;52.704;6.536;2023-08-07T13:55:28;15.10;99.90
58339;DHT22;68636;52.704;6.536;2023-08-07T13:57:55;15.20;99.90
58339;DHT22;68636;52.704;6.536;2023-08-07T14:00:21;15.20;99.90
58339;DHT22;68636;52.704;6.536;2023-08-07T14:02:46;15.40;99.90
58339;DHT22;68636;52.704;6.536;2023-08-07T14:05:12;15.60;99.90
58339;DHT22;68636;52.704;6.536;2023-08-07T14:07:38;15.80;99.90
58339;DHT22;68636;52.704;6.536;2023-08-07T14:10:04;15.90;99.90
58339;DHT22;68636;52.704;6.536;2023-08-07T14:12:30;16.30;99.90
58339;DHT22;68636;52.704;6.536;2023-08-07T14:14:56;16.50;99.90
58339;DHT22;68636;52.704;6.536;2023-08-07T14:17:21;16.60;99.90
58339;DHT22;68636;52.704;6.536;2023-08-07T14:19:47;16.60;99.90
58339;DHT22;68636;52.704;6.536;2023-08-07T14:22:13;16.70;99.90
58339;DHT22;68636;52.704;6.536;2023-08-07T14:24:39;16.60;99.90
58339;DHT22;68636;52.704;6.536;2023-08-07T14:27:04;16.70;99.90
58339;DHT22;68636;52.704;6.536;2023-08-07T14:29:30;16.40;99.90
58339;DHT22;68636;52.704;6.536;2023-08-07T14:31:56;16.10;99.90
58339;DHT22;68636;52.704;6.536;2023-08-07T14:34:21;15.90;99.90
58339;DHT22;68636;52.704;6.536;2023-08-07T14:36:47;15.80;99.90
58339;DHT22;68636;52.704;6.536;2023-08-07T14:39:13;15.70;99.90
58339;DHT22;68636;52.704;6.536;2023-08-07T14:41:39;15.60;99.90
58339;DHT22;68636;52.704;6.536;2023-08-07T14:44:04;15.70;99.90
58339;DHT22;68636;52.704;6.536;2023-08-07T14:46:30;16.00;99.90
58339;DHT22;68636;52.704;6.536;2023-08-07T14:48:56;16.10;99.90
58339;DHT22;68636;52.704;6.536;2023-08-07T14:51:22;15.90;99.90
58339;DHT22;68636;52.704;6.536;2023-08-07T14:53:48;16.00;99.90
58339;DHT22;68636;52.704;6.536;2023-08-07T14:56:13;15.90;99.90
58339;DHT22;68636;52.704;6.536;2023-08-07T14:58:39;15.40;99.90
58339;DHT22;68636;52.704;6.536;2023-08-07T15:01:05;15.20;99.90
58339;DHT22;68636;52.704;6.536;2023-08-07T15:03:30;15.10;99.90
58339;DHT22;68636;52.704;6.536;2023-08-07T15:05:56;15.10;99.90
58339;DHT22;68636;52.704;6.536;2023-08-07T15:08:23;15.00;99.90
58339;DHT22;68636;52.704;6.536;2023-08-07T15:10:51;15.20;99.90
58339;DHT22;68636;52.704;6.536;2023-08-07T15:13:17;15.20;99.90
58339;DHT22;68636;52.704;6.536;2023-08-07T15:15:44;15.30;99.90
58339;DHT22;68636;52.704;6.536;2023-08-07T15:18:10;15.60;99.90
58339;DHT22;68636;52.704;6.536;2023-08-07T15:20:35;15.60;99.90
58339;DHT22;68636;52.704;6.536;2023-08-07T15:23:02;15.70;99.90
58339;DHT22;68636;52.704;6.536;2023-08-07T15:25:28;15.70;99.90
58339;DHT22;68636;52.704;6.536;2023-08-07T15:27:54;15.90;99.90
58339;DHT22;68636;52.704;6.536;2023-08-07T15:30:20;15.90;99.90
58339;DHT22;68636;52.704;6.536;2023-08-07T15:32:46;15.70;99.90
58339;DHT22;68636;52.704;6.536;2023-08-07T15:35:12;15.80;99.90
58339;DHT22;68636;52.704;6.536;2023-08-07T15:37:38;15.90;99.90
58339;DHT22;68636;52.704;6.536;2023-08-07T15:40:04;16.10;99.90
58339;DHT22;68636;52.704;6.536;2023-08-07T15:42:31;16.20;99.90